Time,TemperatureF,DewpointF,PressureIn,WindDirection,WindDirectionDegrees,WindSpeedMPH,WindSpeedGustMPH,Humidity,HourlyPrecipIn,Conditions,Clouds,dailyrainin,SolarRadiationWatts/m^2,SoftwareType,DateUTC
2013-12-18 01:42:00,35.0,24.0,-100.00,NNW,334,2.0,7.0,63,-99.99,,,0.00,0.000000,,2013-12-18 06:42:00,
2013-12-18 01:53:00,35.0,24.0,-100.00,NNW,334,2.0,7.0,63,-99.99,,,0.00,0.000000,,2013-12-18 06:53:00,
2013-12-18 02:02:00,35.0,24.0,-100.00,NNW,334,2.0,7.0,63,-99.99,,,0.00,0.000000,,2013-12-18 07:02:00,
2013-12-18 02:42:00,37.0,23.0,-100.00,NNW,337,5.0,10.0,56,0.00,,,0.00,0.000000,,2013-12-18 07:42:00,
2013-12-18 02:53:00,37.0,23.0,-100.00,NNW,337,5.0,10.0,56,0.00,,,0.00,0.000000,,2013-12-18 07:53:00,
2013-12-18 03:02:00,37.0,23.0,-100.00,NNW,337,5.0,10.0,56,0.00,,,0.00,0.000000,,2013-12-18 08:02:00,
2013-12-18 03:42:00,34.0,24.0,-100.00,NNW,331,3.0,11.0,67,0.00,,,0.00,0.000000,,2013-12-18 08:42:00,
2013-12-18 03:52:00,34.0,24.0,-100.00,NNW,331,3.0,11.0,67,0.00,,,0.00,0.000000,,2013-12-18 08:52:00,
2013-12-18 04:03:00,34.0,24.0,-100.00,NNW,331,3.0,11.0,67,0.00,,,0.00,0.000000,,2013-12-18 09:03:00,
2013-12-18 04:43:00,31.0,24.0,-100.00,ENE,61,2.0,5.0,74,0.00,,,0.00,0.000000,,2013-12-18 09:43:00,
2013-12-18 04:54:00,31.0,24.0,-100.00,ENE,61,2.0,5.0,74,0.00,,,0.00,0.000000,,2013-12-18 09:54:00,
2013-12-18 05:03:00,31.0,24.0,-100.00,ENE,61,2.0,5.0,74,0.00,,,0.00,0.000000,,2013-12-18 10:03:00,
2013-12-18 05:42:00,27.0,24.0,-100.00,SSE,163,1.0,4.0,90,0.00,,,0.00,0.000000,,2013-12-18 10:42:00,
2013-12-18 05:52:00,27.0,24.0,-100.00,SSE,163,1.0,4.0,90,0.00,,,0.00,0.000000,,2013-12-18 10:52:00,
2013-12-18 06:03:00,27.0,24.0,-100.00,SSE,163,1.0,4.0,90,0.00,,,0.00,0.000000,,2013-12-18 11:03:00,
2013-12-18 06:42:00,25.0,23.0,-100.00,SSE,152,1.0,3.0,92,0.00,,,0.00,0.000000,,2013-12-18 11:42:00,
2013-12-18 06:53:00,25.0,23.0,-100.00,SSE,152,1.0,3.0,92,0.00,,,0.00,0.000000,,2013-12-18 11:53:00,
2013-12-18 07:02:00,25.0,23.0,-100.00,SSE,152,1.0,3.0,92,0.00,,,0.00,0.000000,,2013-12-18 12:02:00,
2013-12-18 07:42:00,23.0,22.0,-100.00,North,-999,0.0,2.0,94,0.00,,,0.00,0.000000,,2013-12-18 12:42:00,
2013-12-18 07:53:00,23.0,22.0,-100.00,North,-999,0.0,2.0,94,0.00,,,0.00,0.000000,,2013-12-18 12:53:00,
2013-12-18 08:01:00,23.0,22.0,-100.00,North,-999,0.0,2.0,94,0.00,,,0.00,0.000000,,2013-12-18 13:01:00,
2013-12-18 08:42:00,23.0,22.0,-100.00,North,-999,0.0,2.0,95,0.00,,,0.00,3.000000,,2013-12-18 13:42:00,
2013-12-18 08:52:00,23.0,22.0,-100.00,North,-999,0.0,2.0,95,0.00,,,0.00,3.000000,,2013-12-18 13:52:00,
2013-12-18 09:02:00,23.0,22.0,-100.00,North,-999,0.0,2.0,95,0.00,,,0.00,3.000000,,2013-12-18 14:02:00,
2013-12-18 09:42:00,31.0,27.0,-100.00,North,-999,0.0,2.0,85,0.00,,,0.00,97.000000,,2013-12-18 14:42:00,
2013-12-18 09:52:00,31.0,27.0,-100.00,North,-999,0.0,2.0,85,0.00,,,0.00,97.000000,,2013-12-18 14:52:00,
2013-12-18 10:02:00,31.0,27.0,-100.00,North,-999,0.0,2.0,85,0.00,,,0.00,97.000000,,2013-12-18 15:02:00,
2013-12-18 10:44:00,40.0,30.0,-100.00,South,174,1.0,2.0,68,0.00,,,0.00,233.000000,,2013-12-18 15:44:00,
2013-12-18 10:54:00,40.0,30.0,-100.00,South,174,1.0,2.0,68,0.00,,,0.00,233.000000,,2013-12-18 15:54:00,
2013-12-18 11:04:00,40.0,30.0,-100.00,South,174,1.0,2.0,68,0.00,,,0.00,233.000000,,2013-12-18 16:04:00,
2013-12-18 11:42:00,43.0,22.0,-100.00,SSW,192,3.0,6.0,43,0.00,,,0.00,354.000000,,2013-12-18 16:42:00,
2013-12-18 11:53:00,43.0,22.0,-100.00,SSW,192,3.0,6.0,43,0.00,,,0.00,354.000000,,2013-12-18 16:53:00,
2013-12-18 12:02:00,43.0,22.0,-100.00,SSW,192,3.0,6.0,43,0.00,,,0.00,354.000000,,2013-12-18 17:02:00,
2013-12-18 12:42:00,45.0,22.0,-100.00,East,97,3.0,8.0,39,0.00,,,0.00,436.000000,,2013-12-18 17:42:00,
2013-12-18 12:52:00,45.0,22.0,-100.00,East,97,3.0,8.0,39,0.00,,,0.00,436.000000,,2013-12-18 17:52:00,
2013-12-18 13:02:00,45.0,22.0,-100.00,East,97,3.0,8.0,39,0.00,,,0.00,436.000000,,2013-12-18 18:02:00,
2013-12-18 13:42:00,47.0,21.0,-100.00,SSW,193,6.0,9.0,36,0.00,,,0.00,471.000000,,2013-12-18 18:42:00,
2013-12-18 13:52:00,47.0,21.0,-100.00,SSW,193,6.0,9.0,36,0.00,,,0.00,471.000000,,2013-12-18 18:52:00,
2013-12-18 14:02:00,47.0,21.0,-100.00,SSW,193,6.0,9.0,36,0.00,,,0.00,471.000000,,2013-12-18 19:02:00,
2013-12-18 14:42:00,50.0,21.0,-100.00,SW,223,4.0,9.0,32,0.00,,,0.00,453.000000,,2013-12-18 19:42:00,
2013-12-18 14:52:00,50.0,21.0,-100.00,SW,223,4.0,9.0,32,0.00,,,0.00,453.000000,,2013-12-18 19:52:00,
2013-12-18 15:02:00,50.0,21.0,-100.00,SW,223,4.0,9.0,32,0.00,,,0.00,453.000000,,2013-12-18 20:02:00,
2013-12-18 15:42:00,51.0,20.0,-100.00,South,188,4.0,10.0,29,0.00,,,0.00,382.000000,,2013-12-18 20:42:00,
2013-12-18 15:53:00,51.0,20.0,-100.00,South,188,4.0,10.0,29,0.00,,,0.00,382.000000,,2013-12-18 20:53:00,
2013-12-18 16:03:00,51.0,20.0,-100.00,South,188,4.0,10.0,29,0.00,,,0.00,382.000000,,2013-12-18 21:03:00,
2013-12-18 16:43:00,52.0,17.0,-100.00,SW,222,3.0,9.0,25,0.00,,,0.00,267.000000,,2013-12-18 21:43:00,
2013-12-18 16:53:00,52.0,17.0,-100.00,SW,222,3.0,9.0,25,0.00,,,0.00,267.000000,,2013-12-18 21:53:00,
2013-12-18 17:03:00,52.0,17.0,-100.00,SW,222,3.0,9.0,25,0.00,,,0.00,267.000000,,2013-12-18 22:03:00,
2013-12-18 17:43:00,48.0,17.0,-100.00,SE,129,3.0,7.0,29,0.00,,,0.00,125.000000,,2013-12-18 22:43:00,
2013-12-18 17:53:00,48.0,17.0,-100.00,SE,129,3.0,7.0,29,0.00,,,0.00,125.000000,,2013-12-18 22:53:00,
2013-12-18 18:02:00,48.0,17.0,-100.00,SE,129,3.0,7.0,29,0.00,,,0.00,125.000000,,2013-12-18 23:02:00,
2013-12-18 18:53:00,38.0,26.0,-100.00,SE,146,1.0,3.0,62,0.00,,,0.00,6.000000,,2013-12-18 23:53:00,
2013-12-18 19:02:00,38.0,26.0,-100.00,SE,146,1.0,3.0,62,0.00,,,0.00,6.000000,,2013-12-19 00:02:00,
2013-12-18 19:42:00,33.0,26.0,-100.00,SE,124,1.0,3.0,75,0.00,,,0.00,0.000000,,2013-12-19 00:42:00,
2013-12-18 19:52:00,33.0,26.0,-100.00,SE,124,1.0,3.0,75,0.00,,,0.00,0.000000,,2013-12-19 00:52:00,
2013-12-18 20:02:00,33.0,26.0,-100.00,SE,124,1.0,3.0,75,0.00,,,0.00,0.000000,,2013-12-19 01:02:00,
2013-12-18 20:42:00,32.0,26.0,-100.00,NW,312,1.0,4.0,77,0.00,,,0.00,0.000000,,2013-12-19 01:42:00,
2013-12-18 20:52:00,32.0,26.0,-100.00,NW,312,1.0,4.0,77,0.00,,,0.00,0.000000,,2013-12-19 01:52:00,
2013-12-18 21:01:00,32.0,26.0,-100.00,NW,312,1.0,4.0,77,0.00,,,0.00,0.000000,,2013-12-19 02:01:00,
2013-12-18 21:52:00,29.0,24.0,-100.00,SSE,151,1.0,3.0,82,0.00,,,0.00,0.000000,,2013-12-19 02:52:00,
2013-12-18 22:02:00,29.0,24.0,-100.00,SSE,151,1.0,3.0,82,0.00,,,0.00,0.000000,,2013-12-19 03:02:00,
2013-12-18 22:43:00,28.0,24.0,-100.00,SSE,159,1.0,2.0,85,0.00,,,0.00,0.000000,,2013-12-19 03:43:00,
2013-12-18 22:54:00,28.0,24.0,-100.00,SSE,159,1.0,2.0,85,0.00,,,0.00,0.000000,,2013-12-19 03:54:00,
2013-12-18 23:03:00,28.0,24.0,-100.00,SSE,159,1.0,2.0,85,0.00,,,0.00,0.000000,,2013-12-19 04:03:00,
2013-12-18 23:43:00,27.0,24.0,-100.00,North,-999,0.0,2.0,87,0.00,,,0.00,0.000000,,2013-12-19 04:43:00,
2013-12-18 23:53:00,27.0,24.0,-100.00,North,-999,0.0,2.0,87,0.00,,,0.00,0.000000,,2013-12-19 04:53:00,